Time;durP1;ratioP1;P1;durP2;ratioP2;P2;SDS_P1;SDS_P2;PMS_P1;PMS_P2;Temp;Humidity;BMP_temperature;BMP_pressure;BME280_temperature;BME280_humidity;BME280_pressure;Samples;Min_cycle;Max_cycle;Signal;HPM_P1;HPM_P2
2022/10/29 00:00:43;;;;;;;25.15;5.38;;;;;;;-143.48;92.09;79166.47;5052112;28;20018;-78
2022/10/29 00:03:09;;;;;;;29.05;5.95;;;;;;;-143.48;92.21;79170.44;5035430;28;20041;-79
2022/10/29 00:05:34;;;;;;;26.15;6.13;;;;;;;-143.48;92.25;79168.44;5035352;28;20032;-79
2022/10/29 00:08:00;;;;;;;24.27;5.95;;;;;;;-143.48;91.90;79176.38;5035458;28;20025;-79
2022/10/29 00:10:26;;;;;;;25.17;5.82;;;;;;;-143.48;91.62;79180.34;5035615;28;20028;-79
2022/10/29 00:12:51;;;;;;;24.40;6.32;;;;;;;-143.48;92.10;79184.31;5035865;28;20037;-78
2022/10/29 00:15:16;;;;;;;28.20;5.95;;;;;;;-143.48;91.83;79178.38;5036060;28;20034;-79
2022/10/29 00:17:42;;;;;;;27.73;6.35;;;;;;;-143.48;92.82;79190.28;5036840;28;20010;-78
2022/10/29 00:20:08;;;;;;;26.73;6.57;;;;;;;-143.48;92.47;79196.22;5052519;28;20056;-77
2022/10/29 00:22:33;;;;;;;24.80;6.70;;;;;;;-143.48;92.63;79202.16;5036154;28;20029;-80
2022/10/29 00:24:58;;;;;;;26.70;7.68;;;;;;;-143.48;93.07;79202.16;5052828;28;20032;-79
2022/10/29 00:27:24;;;;;;;23.40;7.15;;;;;;;-143.48;93.23;79192.25;5037325;28;20041;-79
2022/10/29 00:29:50;;;;;;;29.38;7.00;;;;;;;-143.48;93.46;79192.25;5036739;28;20021;-79
2022/10/29 00:32:15;;;;;;;24.55;6.43;;;;;;;-143.48;93.69;79208.13;5036388;28;20011;-79
2022/10/29 00:34:41;;;;;;;25.15;7.30;;;;;;;-143.48;93.97;79208.13;5036628;28;20041;-77
2022/10/29 00:37:06;;;;;;;33.03;6.60;;;;;;;-143.48;94.03;79202.16;5036332;28;20030;-80
2022/10/29 00:39:32;;;;;;;35.15;6.88;;;;;;;-143.48;94.22;79210.09;5038035;28;20090;-79
2022/10/29 00:41:58;;;;;;;30.75;6.05;;;;;;;-143.48;94.40;79204.16;5040254;28;20018;-78
2022/10/29 00:44:30;;;;;;;29.27;6.70;;;;;;;-143.48;94.11;79198.19;5040973;28;20068;-80
2022/10/29 00:47:26;;;;;;;24.88;5.70;;;;;;;-143.48;94.15;79200.19;5041262;28;20033;-79
2022/10/29 00:50:06;;;;;;;28.85;6.32;;;;;;;-143.48;94.34;79208.13;5041131;28;20081;-78
2022/10/29 00:52:33;;;;;;;27.17;6.40;;;;;;;-143.48;94.39;79220.03;5041365;28;20037;-80
2022/10/29 00:55:04;;;;;;;29.40;6.70;;;;;;;-143.48;94.82;79216.06;5040312;28;20030;-80
2022/10/29 00:57:36;;;;;;;24.42;6.43;;;;;;;-143.48;95.03;79212.09;5041188;28;20446;-79
2022/10/29 01:00:02;;;;;;;22.38;6.13;;;;;;;-143.48;94.90;79208.13;5040852;28;20033;-80
2022/10/29 01:02:30;;;;;;;23.05;5.93;;;;;;;-143.48;94.25;79206.13;5041128;28;20014;-78
2022/10/29 01:05:00;;;;;;;24.65;5.53;;;;;;;-143.48;93.73;79220.03;5056731;28;20048;-80
2022/10/29 01:07:26;;;;;;;23.20;6.07;;;;;;;-143.48;94.21;79218.03;5039513;28;20026;-79
2022/10/29 01:09:52;;;;;;;35.42;6.85;;;;;;;-143.48;94.67;79210.09;5040669;28;20077;-79
2022/10/29 01:12:28;;;;;;;27.40;6.70;;;;;;;-143.48;94.77;79204.16;5040876;28;20025;-79
2022/10/29 01:15:32;;;;;;;31.83;6.88;;;;;;;-143.48;94.33;79206.13;5040367;28;20171;-78
2022/10/29 01:18:19;;;;;;;24.00;6.40;;;;;;;-143.48;94.28;79212.09;5030384;28;20041;-79
2022/10/29 01:21:11;;;;;;;21.60;6.47;;;;;;;-143.48;93.88;79210.09;5041022;28;20030;-79
2022/10/29 01:23:51;;;;;;;30.83;7.05;;;;;;;-143.48;93.97;79204.16;5036407;28;20099;-79
2022/10/29 01:26:34;;;;;;;30.77;8.25;;;;;;;-143.48;94.77;79200.19;5040528;28;20045;-79
2022/10/29 01:29:24;;;;;;;36.80;8.68;;;;;;;-143.48;94.72;79198.19;5040875;28;20121;-78
2022/10/29 01:32:03;;;;;;;39.55;8.90;;;;;;;-143.48;94.51;79198.19;5040705;28;20025;-77
2022/10/29 01:34:37;;;;;;;28.98;8.75;;;;;;;-143.48;94.30;79186.31;5040902;28;20077;-76
2022/10/29 01:37:19;;;;;;;36.40;8.35;;;;;;;-143.48;94.56;79174.41;5039890;28;20030;-79
2022/10/29 01:39:54;;;;;;;30.17;8.45;;;;;;;-143.48;94.74;79176.38;5037876;28;20021;-79
2022/10/29 01:42:29;;;;;;;32.00;7.38;;;;;;;-143.48;94.58;79168.44;5039364;28;20013;-78
2022/10/29 01:45:36;;;;;;;26.50;7.28;;;;;;;-143.48;94.75;79174.41;5040502;28;20034;-79
2022/10/29 01:48:09;;;;;;;25.77;6.80;;;;;;;-143.48;94.46;79174.41;5029392;28;20037;-77
2022/10/29 01:50:36;;;;;;;;;;;;;;;-143.48;94.43;79192.25;5039947;28;20045;-78
2022/10/29 01:53:05;;;;;;;24.33;7.07;;;;;;;-143.48;94.67;79206.13;5039968;28;19989;-76
2022/10/29 01:55:35;;;;;;;28.45;6.53;;;;;;;-143.48;94.87;79190.28;5039831;28;20030;-78
2022/10/29 01:58:04;;;;;;;33.67;7.53;;;;;;;-143.48;94.74;79190.28;5040350;28;20048;-79
2022/10/29 02:00:44;;;;;;;32.95;7.38;;;;;;;-143.48;94.07;79196.22;5038890;28;20022;-78
2022/10/29 02:03:32;;;;;;;24.10;6.90;;;;;;;-143.48;93.44;79220.03;5039598;28;20046;-80
2022/10/29 02:06:09;;;;;;;27.55;6.53;;;;;;;-143.48;93.37;79225.97;5039229;28;20042;-79
2022/10/29 02:09:12;;;;;;;25.00;7.10;;;;;;;-143.48;93.76;79218.03;5039977;28;20038;-79
2022/10/29 02:12:05;;;;;;;24.08;6.35;;;;;;;-143.48;93.50;79229.94;5028464;28;20042;-78
2022/10/29 02:14:37;;;;;;;23.42;7.68;;;;;;;-143.48;95.00;79218.03;5038617;28;20029;-79
2022/10/29 02:17:03;;;;;;;29.63;7.75;;;;;;;-143.48;95.66;79190.28;5039922;28;20021;-79
2022/10/29 02:19:30;;;;;;;32.00;7.78;;;;;;;-143.48;95.63;79190.28;5038322;28;20026;-78
2022/10/29 02:21:55;;;;;;;25.88;7.60;;;;;;;-143.48;95.28;79180.34;5039438;28;20046;-77
2022/10/29 02:24:20;;;;;;;30.25;8.40;;;;;;;-143.48;95.47;79202.16;5039400;28;20013;-79
2022/10/29 02:26:46;;;;;;;29.02;7.50;;;;;;;-143.48;95.70;79190.28;5039834;28;20017;-76
2022/10/29 02:29:14;;;;;;;33.38;8.05;;;;;;;-143.48;95.45;79192.25;5039937;28;20006;-79
2022/10/29 02:31:39;;;;;;;27.23;7.88;;;;;;;-143.48;94.72;79190.28;5039753;28;20041;-78
2022/10/29 02:34:04;;;;;;;26.23;7.10;;;;;;;-143.48;94.63;79204.16;5038759;28;20017;-79
2022/10/29 02:36:29;;;;;;;24.23;7.50;;;;;;;-143.48;93.92;79222.00;5055421;28;20097;-75
2022/10/29 02:38:55;;;;;;;27.52;7.75;;;;;;;-143.48;95.00;79212.09;5040124;28;20026;-79
2022/10/29 02:41:20;;;;;;;31.58;7.82;;;;;;;-143.48;95.20;79206.13;5039159;28;20030;-77
2022/10/29 02:43:45;;;;;;;23.10;7.18;;;;;;;-143.48;95.14;79190.28;5037938;28;20045;-79
2022/10/29 02:46:16;;;;;;;30.88;7.80;;;;;;;-143.48;95.26;79198.19;5039130;28;20051;-81
2022/10/29 02:48:41;;;;;;;36.25;8.48;;;;;;;-143.48;95.45;79188.28;5036947;28;20018;-79
2022/10/29 02:51:07;;;;;;;27.52;8.20;;;;;;;-143.48;95.29;79188.28;5039214;28;20025;-79
2022/10/29 02:53:32;;;;;;;31.55;8.35;;;;;;;-143.48;95.59;79196.22;5040854;23;20062;-30
2022/10/29 02:55:57;;;;;;;31.35;8.40;;;;;;;-143.48;95.33;79178.38;5015399;28;20030;-31
2022/10/29 02:58:22;;;;;;;30.42;9.82;;;;;;;-143.48;95.75;79164.47;5014904;28;20036;-31
2022/10/29 03:00:49;;;;;;;31.75;10.57;;;;;;;-143.48;95.98;79164.47;5014817;28;20029;-31
2022/10/29 03:03:14;;;;;;;30.80;10.70;;;;;;;-143.48;95.78;79178.38;5014185;28;20029;-31
2022/10/29 03:05:40;;;;;;;32.58;10.23;;;;;;;-143.48;95.74;79176.38;5014739;28;20380;-31
2022/10/29 03:08:08;;;;;;;38.85;10.70;;;;;;;-143.48;95.38;79166.47;5015300;28;20445;-31
2022/10/29 03:10:33;;;;;;;36.47;10.95;;;;;;;-143.48;95.64;79176.38;5030553;28;20070;-31
2022/10/29 03:12:59;;;;;;;35.70;11.77;;;;;;;-143.48;96.11;79172.41;5013524;28;20128;-31
2022/10/29 03:15:25;;;;;;;47.08;12.23;;;;;;;-143.48;96.29;79164.47;5014575;28;20041;-31
2022/10/29 03:17:50;;;;;;;49.75;12.40;;;;;;;-143.48;96.61;79178.38;5014497;28;20034;-31
2022/10/29 03:20:15;;;;;;;35.28;12.68;;;;;;;-143.48;97.33;79184.31;5014741;28;20088;-31
2022/10/29 03:22:41;;;;;;;46.28;12.93;;;;;;;-143.48;96.94;79186.31;5014439;28;20033;-31
2022/10/29 03:25:06;;;;;;;33.90;12.38;;;;;;;-143.48;97.10;79204.16;5014351;28;20021;-31
2022/10/29 03:27:32;;;;;;;49.45;12.27;;;;;;;-143.48;97.29;79212.09;5014584;28;20034;-31
2022/10/29 03:29:57;;;;;;;61.67;13.70;;;;;;;-143.48;97.70;79206.13;5014349;28;20385;-31
2022/10/29 03:32:22;;;;;;;68.53;13.00;;;;;;;-143.48;97.99;79200.19;5014233;28;20033;-31
2022/10/29 03:34:47;;;;;;;58.92;13.73;;;;;;;-143.48;97.60;79198.19;5014509;28;20021;-31
2022/10/29 03:37:13;;;;;;;36.70;13.57;;;;;;;-143.48;97.47;79198.19;5012994;28;20022;-32
2022/10/29 03:39:38;;;;;;;42.47;13.25;;;;;;;-143.48;97.44;79192.25;5012921;28;20029;-32
2022/10/29 03:42:04;;;;;;;31.77;12.88;;;;;;;-143.48;97.55;79188.28;5014095;28;20103;-32
2022/10/29 03:44:29;;;;;;;33.45;12.77;;;;;;;-143.48;97.13;79180.34;5014097;28;20022;-32
2022/10/29 03:46:55;;;;;;;27.98;12.80;;;;;;;-143.48;97.31;79174.41;5013982;28;20026;-32
2022/10/29 03:49:20;;;;;;;24.05;12.00;;;;;;;-143.48;97.14;79160.50;5014316;28;20028;-32
2022/10/29 03:51:45;;;;;;;27.35;12.95;;;;;;;-143.48;96.90;79166.47;5014259;28;20415;-31
2022/10/29 03:54:11;;;;;;;24.02;12.18;;;;;;;-143.48;96.86;79152.59;5013897;28;20046;-32
2022/10/29 03:56:36;;;;;;;25.77;12.63;;;;;;;-143.48;96.58;79162.50;5013918;28;20463;-32
2022/10/29 03:59:01;;;;;;;25.70;12.18;;;;;;;-143.48;97.02;79146.63;5014218;28;20061;-32
2022/10/29 04:01:27;;;;;;;25.63;11.70;;;;;;;-143.48;96.26;79142.66;5014303;28;20071;-31
2022/10/29 04:03:52;;;;;;;26.02;12.55;;;;;;;-143.48;96.60;79148.63;5013848;28;20380;-32
2022/10/29 04:06:17;;;;;;;27.65;12.80;;;;;;;-143.48;96.66;79152.59;5014107;28;20053;-31
2022/10/29 04:08:43;;;;;;;26.80;12.70;;;;;;;-143.48;96.88;79150.59;5014092;28;20487;-32
2022/10/29 04:11:12;;;;;;;32.35;12.77;;;;;;;-143.48;96.78;79148.63;5012551;28;20029;-31
2022/10/29 04:13:38;;;;;;;24.50;12.43;;;;;;;-143.48;96.46;79154.56;5013652;28;20033;-31
2022/10/29 04:16:03;;;;;;;22.25;12.13;;;;;;;-143.48;96.21;79140.69;5013658;28;20022;-31
2022/10/29 04:18:29;;;;;;;23.77;11.77;;;;;;;-143.48;95.81;79134.72;5013716;28;20026;-31
2022/10/29 04:20:59;;;;;;;28.40;12.45;;;;;;;-143.48;95.61;79142.66;5013971;28;20393;-31
2022/10/29 04:23:24;;;;;;;25.30;12.10;;;;;;;-143.48;95.57;79134.72;5013590;28;20017;-30
2022/10/29 04:25:57;;;;;;;30.63;12.20;;;;;;;-143.48;95.73;79122.81;5014206;28;20037;-31
2022/10/29 04:28:23;;;;;;;27.80;12.10;;;;;;;-143.48;95.39;79128.78;5013580;28;20030;-30
2022/10/29 04:30:48;;;;;;;24.15;11.57;;;;;;;-143.48;95.54;79122.81;5014101;28;20025;-30
2022/10/29 04:33:13;;;;;;;26.35;11.45;;;;;;;-143.48;95.44;79118.84;5013743;28;20026;-31
2022/10/29 04:35:39;;;;;;;27.98;11.88;;;;;;;-143.48;95.42;79112.91;5013513;28;20465;-31
2022/10/29 04:38:09;;;;;;;20.85;11.75;;;;;;;-143.48;95.19;79104.97;5012429;28;20029;-31
2022/10/29 04:40:34;;;;;;;22.33;11.43;;;;;;;-143.48;95.22;79112.91;5012210;28;20100;-31
2022/10/29 04:42:59;;;;;;;24.92;11.38;;;;;;;-143.48;94.89;79101.00;5013996;28;20081;-31
2022/10/29 04:45:25;;;;;;;24.63;11.65;;;;;;;-143.48;95.31;79104.97;5013633;28;20017;-31
2022/10/29 04:48:00;;;;;;;25.58;12.32;;;;;;;-143.48;95.11;79097.03;5013518;28;20104;-31
2022/10/29 04:50:27;;;;;;;21.42;11.68;;;;;;;-143.48;95.00;79091.09;5013658;28;20022;-35
2022/10/29 04:52:52;;;;;;;22.17;11.85;;;;;;;-143.48;94.94;79091.09;5013305;28;20029;-31
2022/10/29 04:55:17;;;;;;;25.75;12.20;;;;;;;-143.48;94.47;79091.09;5013262;28;20507;-31
2022/10/29 04:57:48;;;;;;;25.52;12.02;;;;;;;-143.48;94.55;79085.13;5013293;28;20473;-31
2022/10/29 05:00:13;;;;;;;24.15;11.95;;;;;;;-143.48;94.92;79081.16;5013368;28;20040;-31
2022/10/29 05:02:39;;;;;;;20.67;12.43;;;;;;;-143.48;94.92;79083.16;5013756;28;20018;-30
2022/10/29 05:05:04;;;;;;;25.15;11.85;;;;;;;-143.48;94.82;79075.22;5013243;28;20037;-31
2022/10/29 05:07:30;;;;;;;22.88;11.60;;;;;;;-143.48;94.80;79081.16;5013478;28;20025;-31
2022/10/29 05:09:55;;;;;;;25.55;11.50;;;;;;;-143.48;94.92;79075.22;5013737;28;20029;-31
2022/10/29 05:12:20;;;;;;;24.60;11.80;;;;;;;-143.48;94.62;79075.22;5028331;28;20030;-31
2022/10/29 05:14:46;;;;;;;23.63;11.73;;;;;;;-143.48;94.67;79081.16;5013116;28;20018;-31
2022/10/29 05:17:11;;;;;;;20.80;11.02;;;;;;;-143.48;94.93;79083.16;5013045;28;20385;-31
2022/10/29 05:19:36;;;;;;;20.50;11.00;;;;;;;-143.48;94.98;79079.19;5011834;28;20113;-31
2022/10/29 05:22:01;;;;;;;23.50;11.38;;;;;;;-143.48;95.06;79071.25;5013356;28;20148;-31
2022/10/29 05:24:27;;;;;;;23.52;11.55;;;;;;;-143.48;94.74;79081.16;5013350;28;20022;-31
2022/10/29 05:26:52;;;;;;;27.98;11.90;;;;;;;-143.48;94.82;79075.22;5015720;28;20037;-31
2022/10/29 05:29:17;;;;;;;22.88;11.20;;;;;;;-143.48;94.46;79071.25;5016743;28;20080;-31
2022/10/29 05:31:43;;;;;;;21.95;11.65;;;;;;;-143.48;94.28;79077.19;5016531;28;20465;-31
2022/10/29 05:34:08;;;;;;;23.77;11.88;;;;;;;-143.48;95.18;79069.28;5016984;28;20030;-31
2022/10/29 05:36:33;;;;;;;24.15;11.70;;;;;;;-143.48;95.22;79061.34;5016682;28;20025;-31
2022/10/29 05:38:59;;;;;;;23.73;11.82;;;;;;;-143.48;94.53;79063.31;5016351;28;20030;-31
2022/10/29 05:41:24;;;;;;;24.52;11.23;;;;;;;-143.48;94.64;79059.34;5016638;28;20044;-31
2022/10/29 05:43:49;;;;;;;22.67;12.05;;;;;;;-143.48;94.56;79063.31;5016338;28;20053;-32
2022/10/29 05:46:15;;;;;;;22.95;11.68;;;;;;;-143.48;94.60;79071.25;5016192;28;20053;-31
2022/10/29 05:48:41;;;;;;;24.30;11.52;;;;;;;-143.48;94.49;79081.16;5016172;28;20072;-33
2022/10/29 05:51:06;;;;;;;22.20;11.95;;;;;;;-143.48;94.69;79079.19;5015484;28;20084;-31
2022/10/29 05:53:31;;;;;;;21.52;11.77;;;;;;;-143.48;94.51;79077.19;5015766;28;20088;-31
2022/10/29 05:55:57;;;;;;;21.63;11.50;;;;;;;-143.48;94.33;79087.13;5016712;28;20041;-31
2022/10/29 05:58:23;;;;;;;22.23;12.25;;;;;;;-143.48;94.54;79083.16;5016377;28;20140;-31
2022/10/29 06:00:48;;;;;;;23.30;12.07;;;;;;;-143.48;94.44;79081.16;5015912;28;20025;-31
2022/10/29 06:03:19;;;;;;;26.90;12.02;;;;;;;-143.48;94.44;79071.25;5016182;28;20021;-31
2022/10/29 06:05:48;;;;;;;21.40;11.30;;;;;;;-143.48;94.27;79075.22;5016211;28;20024;-31
2022/10/29 06:08:14;;;;;;;21.95;11.15;;;;;;;-143.48;93.89;79071.25;5016124;28;20056;-32
2022/10/29 06:10:40;;;;;;;20.27;10.48;;;;;;;-143.48;93.71;79077.19;5016381;28;20030;-32
2022/10/29 06:13:10;;;;;;;25.58;11.77;;;;;;;-143.48;93.69;79075.22;5015581;28;20033;-32
2022/10/29 06:15:36;;;;;;;21.95;11.20;;;;;;;-143.48;93.74;79079.19;5015981;28;20485;-32
2022/10/29 06:18:01;;;;;;;24.92;11.80;;;;;;;-143.48;94.06;79075.22;5015961;28;20033;-32
2022/10/29 06:20:26;;;;;;;25.65;11.15;;;;;;;-143.48;93.99;79079.19;5015621;28;20437;-32
2022/10/29 06:22:56;;;;;;;23.70;11.27;;;;;;;-143.48;93.97;79075.22;5015767;28;20084;-32
2022/10/29 06:25:22;;;;;;;24.33;11.40;;;;;;;-143.48;93.89;79063.31;5015693;28;20033;-32
2022/10/29 06:27:47;;;;;;;24.23;11.38;;;;;;;-143.48;93.73;79061.34;5015412;28;20030;-32
2022/10/29 06:30:12;;;;;;;25.63;11.32;;;;;;;-143.48;94.16;79057.38;5015684;28;20104;-32
2022/10/29 06:32:37;;;;;;;22.85;11.45;;;;;;;-143.48;94.00;79049.44;5015588;28;20022;-32
2022/10/29 06:35:03;;;;;;;28.55;11.88;;;;;;;-143.48;93.76;79053.41;5015837;28;20029;-32
2022/10/29 06:37:32;;;;;;;23.05;10.88;;;;;;;-143.48;93.63;79035.56;5015507;28;20022;-32
2022/10/29 06:39:57;;;;;;;20.55;11.48;;;;;;;-143.48;92.99;79037.53;5015180;28;20032;-31
2022/10/29 06:42:22;;;;;;;21.10;11.07;;;;;;;-143.48;92.96;79033.56;5015201;28;20058;-32
2022/10/29 06:44:48;;;;;;;23.35;11.55;;;;;;;-143.48;92.92;79031.59;5015665;28;20033;-32
2022/10/29 06:47:13;;;;;;;24.70;10.73;;;;;;;-143.48;92.96;79035.56;5015063;28;20032;-32
2022/10/29 06:49:38;;;;;;;22.35;11.07;;;;;;;-143.48;93.20;79031.59;5015370;28;20024;-32
2022/10/29 06:52:04;;;;;;;20.73;10.82;;;;;;;-143.48;92.64;79023.66;5013795;28;20389;-32
2022/10/29 06:54:29;;;;;;;26.80;11.13;;;;;;;-143.48;92.65;79003.81;5014685;28;20120;-32
2022/10/29 06:56:54;;;;;;;21.13;10.57;;;;;;;-143.48;91.96;78995.88;5015140;28;20025;-32
2022/10/29 06:59:22;;;;;;;20.25;10.70;;;;;;;-143.48;91.55;78989.94;5014824;28;20025;-31
2022/10/29 07:01:47;;;;;;;23.15;10.40;;;;;;;-143.48;91.51;78985.97;5015137;28;20057;-30
2022/10/29 07:04:12;;;;;;;20.58;10.35;;;;;;;-143.48;91.24;78983.97;5015089;28;20060;-30
2022/10/29 07:06:38;;;;;;;20.15;9.82;;;;;;;-143.48;91.26;78978.03;5014717;28;20448;-31
2022/10/29 07:09:03;;;;;;;25.85;10.13;;;;;;;-143.48;91.10;78972.06;5013012;28;20021;-31
2022/10/29 07:11:28;;;;;;;17.67;9.13;;;;;;;-143.48;90.71;78970.09;5013306;28;20029;-31
2022/10/29 07:13:54;;;;;;;19.60;9.18;;;;;;;-143.48;90.27;78964.16;5013608;28;20022;-30
2022/10/29 07:16:19;;;;;;;22.30;9.25;;;;;;;-143.48;90.12;78960.19;5014126;28;20376;-30
2022/10/29 07:18:44;;;;;;;18.23;9.02;;;;;;;-143.48;89.29;78956.22;5013976;28;20030;-30
2022/10/29 07:21:09;;;;;;;17.15;9.40;;;;;;;-143.48;89.07;78950.25;5014102;28;20595;-31
2022/10/29 07:23:35;;;;;;;19.15;8.77;;;;;;;-143.48;89.21;78944.31;5014669;28;20026;-31
2022/10/29 07:26:00;;;;;;;19.30;8.50;;;;;;;-143.48;88.89;78942.31;5014644;28;20032;-31
2022/10/29 07:28:28;;;;;;;16.23;8.02;;;;;;;-143.48;88.51;78920.50;5014313;28;20034;-34
2022/10/29 07:30:59;;;;;;;17.65;8.75;;;;;;;-143.48;88.09;78918.53;5014437;28;20022;-31
2022/10/29 07:33:26;;;;;;;25.30;9.15;;;;;;;-143.48;87.85;78922.50;4996576;28;20457;-31
2022/10/29 07:35:55;;;;;;;23.75;10.10;;;;;;;-143.48;87.78;78910.59;5014119;28;20104;-31
2022/10/29 07:38:20;;;;;;;15.55;9.20;;;;;;;-143.48;88.10;78912.56;5014337;28;20040;-31
2022/10/29 07:40:48;;;;;;;16.08;8.52;;;;;;;-143.48;87.26;78837.19;5013766;28;20022;-31
2022/10/29 07:43:14;;;;;;;17.48;8.15;;;;;;;-143.48;83.80;78847.13;5013868;28;20060;-31
2022/10/29 07:45:41;;;;;;;18.50;8.63;;;;;;;-143.48;84.31;78843.16;5013853;28;20527;-31
2022/10/29 07:48:08;;;;;;;15.25;8.85;;;;;;;-143.48;80.33;78688.44;5013656;28;20452;-31
2022/10/29 07:50:34;;;;;;;16.40;8.27;;;;;;;-143.48;74.90;78615.06;5013898;28;20026;-31
2022/10/29 07:53:00;;;;;;;17.58;8.38;;;;;;;-143.48;76.90;78724.16;5012405;28;20357;-31
2022/10/29 07:55:25;;;;;;;16.08;8.32;;;;;;;-143.48;80.41;78781.66;5013730;28;20053;-31
2022/10/29 07:57:57;;;;;;;15.43;8.23;;;;;;;-143.48;80.67;78779.69;5014121;28;20026;-31
2022/10/29 08:00:23;;;;;;;18.15;8.55;;;;;;;-143.48;82.70;78795.53;5013978;28;20030;-31
2022/10/29 08:02:53;;;;;;;17.50;8.82;;;;;;;-143.48;82.75;78787.63;5013588;28;20109;-31
2022/10/29 08:05:19;;;;;;;24.42;9.27;;;;;;;-143.48;84.37;78797.53;5013973;28;20022;-31
2022/10/29 08:07:44;;;;;;;16.33;8.30;;;;;;;-143.48;83.87;78757.88;5014011;28;20030;-31
2022/10/29 08:10:09;;;;;;;15.23;8.57;;;;;;;-143.48;84.27;78747.94;5013879;28;20049;-31
2022/10/29 08:12:34;;;;;;;17.85;8.77;;;;;;;-143.48;83.53;78724.16;5013706;28;20030;-31
2022/10/29 08:15:00;;;;;;;19.80;10.57;;;;;;;-143.48;82.99;78706.28;5013548;28;20461;-31
2022/10/29 08:17:28;;;;;;;21.27;9.98;;;;;;;-143.48;81.36;78660.69;5013799;28;20025;-31
2022/10/29 08:19:53;;;;;;;24.30;11.07;;;;;;;-143.48;80.03;78599.19;5013466;28;20108;-31
2022/10/29 08:22:19;;;;;;;25.83;10.95;;;;;;;-143.48;79.80;78613.06;5013926;28;20120;-32
2022/10/29 08:24:44;;;;;;;20.95;10.38;;;;;;;-143.48;79.48;78581.34;5013679;28;20025;-31
2022/10/29 08:27:09;;;;;;;23.55;10.65;;;;;;;-143.48;78.98;78565.47;5013437;28;20018;-31
2022/10/29 08:29:34;;;;;;;25.55;9.95;;;;;;;-143.48;79.44;78579.34;5013858;28;20034;-31
2022/10/29 08:32:00;;;;;;;24.05;9.80;;;;;;;-143.48;78.06;78535.72;5013439;28;20156;-31
2022/10/29 08:34:25;;;;;;;19.45;10.32;;;;;;;-143.48;79.89;78583.31;5011997;28;20053;-31
2022/10/29 08:36:50;;;;;;;21.83;9.52;;;;;;;-143.48;79.57;78543.66;5012882;28;20028;-31
2022/10/29 08:39:16;;;;;;;24.55;10.10;;;;;;;-143.48;79.37;78547.63;5012524;28;20025;-31
2022/10/29 08:41:53;;;;;;;21.10;10.35;;;;;;;-143.48;76.51;78472.25;5012022;28;20032;-31
2022/10/29 08:44:49;;;;;;;22.70;10.18;;;;;;;-143.48;77.35;78500.03;5012227;28;20117;-31
2022/10/29 08:47:19;;;;;;;25.95;10.05;;;;;;;-143.48;79.11;78519.88;5011916;28;20033;-31
2022/10/29 08:50:12;;;;;;;21.38;10.07;;;;;;;-143.48;80.00;78525.81;5012903;28;20045;-30
2022/10/29 08:52:39;;;;;;;26.08;11.23;;;;;;;-143.48;78.73;78458.38;5012698;28;20056;-31
2022/10/29 08:55:17;;;;;;;26.98;10.57;;;;;;;-143.48;77.92;78460.38;5012905;28;20073;-31
2022/10/29 08:57:49;;;;;;;24.90;10.30;;;;;;;-143.48;73.59;78367.16;5013125;28;20052;-31
2022/10/29 09:00:18;;;;;;;33.45;9.90;;;;;;;-143.48;74.70;78400.88;5013582;28;20030;-31
2022/10/29 09:02:43;;;;;;;27.17;9.82;;;;;;;-143.48;76.28;78426.66;5017499;28;20030;-31
2022/10/29 09:05:14;;;;;;;29.63;9.93;;;;;;;-143.48;78.07;78476.22;5017263;28;20096;-32
2022/10/29 09:08:06;;;;;;;28.83;10.35;;;;;;;-143.48;75.71;78398.88;5016920;28;20469;-32
2022/10/29 09:10:36;;;;;;;20.88;9.55;;;;;;;-143.48;74.29;78381.03;5016802;28;20029;-31
2022/10/29 09:13:44;;;;;;;29.38;9.85;;;;;;;-143.48;76.64;78448.47;5017098;28;20380;-32
2022/10/29 09:16:23;;;;;;;27.55;10.60;;;;;;;-143.48;77.68;78448.47;5017002;28;20416;-32
2022/10/29 09:19:25;;;;;;;19.33;9.75;;;;;;;-143.48;76.64;78394.91;5017029;28;20037;-32
2022/10/29 09:22:12;;;;;;;26.60;9.35;;;;;;;-143.48;74.89;78367.16;5017195;28;20034;-32
2022/10/29 09:24:56;;;;;;;22.88;9.18;;;;;;;-143.48;75.29;78381.03;5016747;28;20179;-32
2022/10/29 09:27:39;;;;;;;24.95;9.77;;;;;;;-143.48;75.86;78381.03;5016588;28;20037;-31
2022/10/29 09:30:12;;;;;;;;;;;;;;;-143.48;76.04;78379.06;5017568;28;20032;-32
2022/10/29 09:32:47;;;;;;;24.48;9.40;;;;;;;-143.48;76.62;78383.00;5016697;28;19909;-32
2022/10/29 09:35:16;;;;;;;26.90;8.93;;;;;;;-143.48;76.86;78390.94;5016461;28;20022;-32
2022/10/29 09:37:54;;;;;;;25.67;9.10;;;;;;;-143.48;77.60;78398.88;5016671;28;20053;-32
2022/10/29 09:40:30;;;;;;;25.88;9.35;;;;;;;-143.48;77.98;78416.72;5016253;28;20018;-32
2022/10/29 09:42:58;;;;;;;26.60;9.30;;;;;;;-143.48;78.97;78434.59;5016529;28;20041;-32
2022/10/29 09:45:48;;;;;;;22.45;8.93;;;;;;;-143.48;78.51;78426.66;5014943;28;20032;-32
2022/10/29 09:48:26;;;;;;;27.65;8.98;;;;;;;-143.48;78.59;78422.69;5012252;28;20118;-32
2022/10/29 09:51:19;;;;;;;22.55;9.02;;;;;;;-143.48;78.26;78410.78;5016444;28;20026;-32
2022/10/29 09:53:44;;;;;;;19.73;8.25;;;;;;;-143.48;78.19;78414.75;5016010;28;20042;-32
2022/10/29 09:56:10;;;;;;;26.52;9.13;;;;;;;-143.48;78.15;78408.81;5016247;28;20484;-31
2022/10/29 09:58:43;;;;;;;26.08;7.90;;;;;;;-143.48;77.64;78385.00;5016236;28;20029;-31
2022/10/29 10:01:08;;;;;;;23.67;8.10;;;;;;;-143.48;77.50;78367.16;5016225;28;20026;-32
2022/10/29 10:03:44;;;;;;;21.75;8.32;;;;;;;-143.48;77.41;78369.13;5016207;28;20014;-31
2022/10/29 10:06:12;;;;;;;21.63;8.13;;;;;;;-143.48;77.20;78359.22;5016015;28;20044;-31
2022/10/29 10:09:03;;;;;;;24.00;7.47;;;;;;;-143.48;75.88;78337.41;5014554;28;20496;-32
2022/10/29 10:11:36;;;;;;;24.15;7.70;;;;;;;-143.48;74.82;78307.66;5015477;28;20022;-32
2022/10/29 10:14:12;;;;;;;20.88;7.40;;;;;;;-143.48;73.60;78299.72;5015656;28;20026;-32
2022/10/29 10:16:37;;;;;;;23.58;7.28;;;;;;;-143.48;72.28;78262.03;5015530;28;20380;-32
2022/10/29 10:19:20;;;;;;;21.30;6.95;;;;;;;-143.48;68.85;78164.88;5015713;28;20025;-32
2022/10/29 10:21:58;;;;;;;24.00;7.18;;;;;;;-143.48;67.69;78164.88;5015895;28;20361;-32
2022/10/29 10:24:32;;;;;;;24.30;7.32;;;;;;;-143.48;68.60;78180.72;5015767;28;20018;-32
2022/10/29 10:26:58;;;;;;;21.05;7.63;;;;;;;-143.48;69.48;78202.56;5015879;28;20030;-32
2022/10/29 10:29:25;;;;;;;20.92;6.85;;;;;;;-143.48;69.71;78198.59;5015793;28;20022;-32
2022/10/29 10:31:56;;;;;;;26.50;6.93;;;;;;;-143.48;68.88;78170.81;5015344;28;20021;-31
2022/10/29 10:34:34;;;;;;;25.05;6.72;;;;;;;-143.48;64.41;77984.41;5016270;28;20061;-31
2022/10/29 10:37:09;;;;;;;17.20;6.10;;;;;;;-143.48;59.79;77901.13;5015131;28;20173;-32
2022/10/29 10:39:38;;;;;;;22.00;6.47;;;;;;;-143.48;62.92;78032.00;5015127;28;20026;-32
2022/10/29 10:42:31;;;;;;;16.38;5.82;;;;;;;-143.48;64.80;78091.50;5015467;28;20025;-32
2022/10/29 10:45:05;;;;;;;20.23;5.65;;;;;;;-143.48;65.26;78099.44;5015272;28;20029;-32
2022/10/29 10:47:35;;;;;;;19.63;5.57;;;;;;;-143.48;65.31;78095.47;5015015;28;20026;-32
2022/10/29 10:50:20;;;;;;;20.55;5.30;;;;;;;-143.48;63.93;78081.56;5015440;28;20026;-32
2022/10/29 10:52:46;;;;;;;19.25;5.25;;;;;;;-143.48;62.48;78037.94;5014868;28;20057;-32
2022/10/29 10:55:25;;;;;;;17.42;5.10;;;;;;;-143.48;60.99;77992.34;5015107;28;20136;-32
2022/10/29 10:58:08;;;;;;;13.45;4.63;;;;;;;-143.48;57.13;77760.34;5014814;28;20477;-32
2022/10/29 11:00:36;;;;;;;;;;;;;;;-143.48;46.79;77397.47;5015508;28;20037;-32
2022/10/29 11:03:07;;;;;;;16.75;4.57;;;;;;;-143.48;47.68;77520.41;5014665;28;19916;-32
2022/10/29 11:05:37;;;;;;;12.02;4.30;;;;;;;-143.48;44.36;77270.59;5014890;28;20377;-32
2022/10/29 11:08:23;;;;;;;17.40;4.65;;;;;;;-143.48;45.33;77375.66;5014588;28;20377;-32
2022/10/29 11:10:56;;;;;;;11.30;4.32;;;;;;;-143.48;45.12;77456.97;5014009;28;20037;-32
2022/10/29 11:13:23;;;;;;;14.43;4.15;;;;;;;-143.48;49.82;77673.09;5013446;28;20033;-32
2022/10/29 11:15:54;;;;;;;10.38;4.00;;;;;;;-143.48;46.70;77476.78;5014502;28;20036;-32
2022/10/29 11:18:30;;;;;;;12.73;4.07;;;;;;;-143.48;49.63;77657.22;5013106;28;20026;-33